Shelly, Minnesota
Current Conditions -  °F | °C
As of 10:14 PM on Saturday 20 Dec 2014 (Local Time) from KCKN Reporting Station
Haze Haze  
Wind Chill: 19°   Ceiling: 700
Heat Index: 30°   Visibility: 4mi
Dew Point: 30°   Wind: 16mph
Humidity: 100%   Direction: 180°S
Pressure: 29.9"   Gusts: NA
Location:  47.46°N, 96.82°W
Report Text: KCKN 210414Z AUTO 18014KT 4SM BR OVC007 M01/M01 A2990 RMK AO2
Loading
Personal Weather Stations






























Interactive Weather Map New forecast layout! Learn more

10-Day Weather Forecast

Advertisements
Track Severe Weather on mobile